sensor_id;sensor_type;location;lat;lon;timestamp;temperature;humidity
68128;SHT30;54931;52.098;21.006;2023-05-10T00:01:46;6.17;60.71
68128;SHT30;54931;52.098;21.006;2023-05-10T00:04:14;6.14;60.78
68128;SHT30;54931;52.098;21.006;2023-05-10T00:06:42;6.13;60.91
68128;SHT30;54931;52.098;21.006;2023-05-10T00:09:10;6.11;60.68
68128;SHT30;54931;52.098;21.006;2023-05-10T00:11:37;6.10;61.02
68128;SHT30;54931;52.098;21.006;2023-05-10T00:14:05;6.12;60.96
68128;SHT30;54931;52.098;21.006;2023-05-10T00:16:32;6.11;61.14
68128;SHT30;54931;52.098;21.006;2023-05-10T00:19:00;6.09;61.01
68128;SHT30;54931;52.098;21.006;2023-05-10T00:21:28;6.05;61.16
68128;SHT30;54931;52.098;21.006;2023-05-10T00:23:56;6.04;61.36
68128;SHT30;54931;52.098;21.006;2023-05-10T00:26:23;6.05;61.49
68128;SHT30;54931;52.098;21.006;2023-05-10T00:28:51;6.05;61.41
68128;SHT30;54931;52.098;21.006;2023-05-10T00:31:19;6.03;61.26
68128;SHT30;54931;52.098;21.006;2023-05-10T00:33:47;6.02;61.27
68128;SHT30;54931;52.098;21.006;2023-05-10T00:36:14;6.00;61.34
68128;SHT30;54931;52.098;21.006;2023-05-10T00:38:42;6.01;61.50
68128;SHT30;54931;52.098;21.006;2023-05-10T00:41:09;6.07;61.47
68128;SHT30;54931;52.098;21.006;2023-05-10T00:43:37;6.10;61.23
68128;SHT30;54931;52.098;21.006;2023-05-10T00:46:05;6.14;61.30
68128;SHT30;54931;52.098;21.006;2023-05-10T00:48:33;6.15;61.06
68128;SHT30;54931;52.098;21.006;2023-05-10T00:51:02;6.16;61.04
68128;SHT30;54931;52.098;21.006;2023-05-10T00:53:31;6.17;60.81
68128;SHT30;54931;52.098;21.006;2023-05-10T00:55:59;6.16;60.76
68128;SHT30;54931;52.098;21.006;2023-05-10T00:58:28;6.16;60.63
68128;SHT30;54931;52.098;21.006;2023-05-10T01:00:57;6.16;60.69
68128;SHT30;54931;52.098;21.006;2023-05-10T01:03:26;6.17;60.60
68128;SHT30;54931;52.098;21.006;2023-05-10T01:05:55;6.16;60.53
68128;SHT30;54931;52.098;21.006;2023-05-10T01:08:23;6.15;60.48
68128;SHT30;54931;52.098;21.006;2023-05-10T01:10:52;6.12;60.44
68128;SHT30;54931;52.098;21.006;2023-05-10T01:13:27;6.11;60.61
68128;SHT30;54931;52.098;21.006;2023-05-10T01:16:00;6.10;60.56
68128;SHT30;54931;52.098;21.006;2023-05-10T01:18:33;6.08;60.60
68128;SHT30;54931;52.098;21.006;2023-05-10T01:24:04;6.02;60.64
68128;SHT30;54931;52.098;21.006;2023-05-10T01:33:26;5.87;61.09
68128;SHT30;54931;52.098;21.006;2023-05-10T01:36:23;5.84;61.15
68128;SHT30;54931;52.098;21.006;2023-05-10T01:39:06;5.78;61.32
68128;SHT30;54931;52.098;21.006;2023-05-10T01:44:42;5.70;61.71
68128;SHT30;54931;52.098;21.006;2023-05-10T01:47:17;5.68;61.71
68128;SHT30;54931;52.098;21.006;2023-05-10T01:49:55;5.63;61.78
68128;SHT30;54931;52.098;21.006;2023-05-10T01:52:26;5.61;62.11
68128;SHT30;54931;52.098;21.006;2023-05-10T01:55:05;5.59;61.98
68128;SHT30;54931;52.098;21.006;2023-05-10T01:57:38;5.55;62.03
68128;SHT30;54931;52.098;21.006;2023-05-10T02:00:09;5.54;62.06
68128;SHT30;54931;52.098;21.006;2023-05-10T02:02:40;5.53;62.14
68128;SHT30;54931;52.098;21.006;2023-05-10T02:05:13;5.55;62.07
68128;SHT30;54931;52.098;21.006;2023-05-10T02:07:43;5.55;61.91
68128;SHT30;54931;52.098;21.006;2023-05-10T02:10:12;5.53;61.82
68128;SHT30;54931;52.098;21.006;2023-05-10T02:12:43;5.52;61.76
68128;SHT30;54931;52.098;21.006;2023-05-10T02:15:15;5.51;61.78
68128;SHT30;54931;52.098;21.006;2023-05-10T02:17:49;5.52;61.82
68128;SHT30;54931;52.098;21.006;2023-05-10T02:20:18;5.55;61.85
68128;SHT30;54931;52.098;21.006;2023-05-10T02:22:48;5.53;61.75
68128;SHT30;54931;52.098;21.006;2023-05-10T02:25:19;5.50;61.70
68128;SHT30;54931;52.098;21.006;2023-05-10T02:27:50;5.48;61.70
68128;SHT30;54931;52.098;21.006;2023-05-10T02:30:22;5.47;61.72
68128;SHT30;54931;52.098;21.006;2023-05-10T02:32:51;5.46;61.66
68128;SHT30;54931;52.098;21.006;2023-05-10T02:35:20;5.46;61.56
68128;SHT30;54931;52.098;21.006;2023-05-10T02:37:49;5.43;61.53
68128;SHT30;54931;52.098;21.006;2023-05-10T02:40:18;5.43;61.67
68128;SHT30;54931;52.098;21.006;2023-05-10T02:42:49;5.43;61.53
68128;SHT30;54931;52.098;21.006;2023-05-10T02:45:21;5.41;61.56
68128;SHT30;54931;52.098;21.006;2023-05-10T02:47:56;5.42;61.77
68128;SHT30;54931;52.098;21.006;2023-05-10T02:50:25;5.42;61.70
68128;SHT30;54931;52.098;21.006;2023-05-10T02:52:59;5.40;61.63
68128;SHT30;54931;52.098;21.006;2023-05-10T02:55:35;5.37;61.68
68128;SHT30;54931;52.098;21.006;2023-05-10T02:58:07;5.34;61.83
68128;SHT30;54931;52.098;21.006;2023-05-10T03:00:35;5.29;61.90
68128;SHT30;54931;52.098;21.006;2023-05-10T03:03:03;5.26;62.08
68128;SHT30;54931;52.098;21.006;2023-05-10T03:05:31;5.22;62.28
68128;SHT30;54931;52.098;21.006;2023-05-10T03:07:58;5.20;62.52
68128;SHT30;54931;52.098;21.006;2023-05-10T03:10:30;5.21;62.56
68128;SHT30;54931;52.098;21.006;2023-05-10T03:13:20;5.19;62.56
68128;SHT30;54931;52.098;21.006;2023-05-10T03:16:29;5.19;62.60
68128;SHT30;54931;52.098;21.006;2023-05-10T03:22:36;5.19;62.79
68128;SHT30;54931;52.098;21.006;2023-05-10T03:25:13;5.19;62.87
68128;SHT30;54931;52.098;21.006;2023-05-10T03:27:45;5.22;62.93
68128;SHT30;54931;52.098;21.006;2023-05-10T03:30:14;5.23;62.94
68128;SHT30;54931;52.098;21.006;2023-05-10T03:32:43;5.26;63.00
68128;SHT30;54931;52.098;21.006;2023-05-10T03:35:12;5.30;62.88
68128;SHT30;54931;52.098;21.006;2023-05-10T03:37:41;5.33;63.01
68128;SHT30;54931;52.098;21.006;2023-05-10T03:40:09;5.39;62.84
68128;SHT30;54931;52.098;21.006;2023-05-10T03:42:39;5.44;62.69
68128;SHT30;54931;52.098;21.006;2023-05-10T03:45:08;5.50;62.61
68128;SHT30;54931;52.098;21.006;2023-05-10T03:47:38;5.57;62.49
68128;SHT30;54931;52.098;21.006;2023-05-10T03:50:06;5.63;62.33
68128;SHT30;54931;52.098;21.006;2023-05-10T03:52:35;5.69;62.21
68128;SHT30;54931;52.098;21.006;2023-05-10T03:55:03;5.77;62.13
68128;SHT30;54931;52.098;21.006;2023-05-10T03:57:32;5.84;61.89
68128;SHT30;54931;52.098;21.006;2023-05-10T03:59:59;5.91;61.76
68128;SHT30;54931;52.098;21.006;2023-05-10T04:02:27;5.97;61.63
68128;SHT30;54931;52.098;21.006;2023-05-10T04:04:54;6.04;61.45
68128;SHT30;54931;52.098;21.006;2023-05-10T04:07:22;6.11;61.26
68128;SHT30;54931;52.098;21.006;2023-05-10T04:09:51;6.20;61.01
68128;SHT30;54931;52.098;21.006;2023-05-10T04:12:19;6.30;60.88
68128;SHT30;54931;52.098;21.006;2023-05-10T04:14:47;6.48;60.62
68128;SHT30;54931;52.098;21.006;2023-05-10T04:17:15;6.83;60.15
68128;SHT30;54931;52.098;21.006;2023-05-10T04:19:43;7.20;59.53
68128;SHT30;54931;52.098;21.006;2023-05-10T04:22:10;7.56;58.01
68128;SHT30;54931;52.098;21.006;2023-05-10T04:24:38;7.87;56.88
68128;SHT30;54931;52.098;21.006;2023-05-10T04:27:06;8.19;56.02
68128;SHT30;54931;52.098;21.006;2023-05-10T04:29:34;8.49;55.53
68128;SHT30;54931;52.098;21.006;2023-05-10T04:32:01;8.78;54.77
68128;SHT30;54931;52.098;21.006;2023-05-10T04:34:29;9.07;53.55
68128;SHT30;54931;52.098;21.006;2023-05-10T04:36:57;9.38;52.64
68128;SHT30;54931;52.098;21.006;2023-05-10T04:39:24;9.60;51.82
68128;SHT30;54931;52.098;21.006;2023-05-10T04:41:52;9.91;51.71
68128;SHT30;54931;52.098;21.006;2023-05-10T04:44:20;10.25;51.43
68128;SHT30;54931;52.098;21.006;2023-05-10T04:46:47;10.59;50.33
68128;SHT30;54931;52.098;21.006;2023-05-10T04:49:15;10.84;49.30
68128;SHT30;54931;52.098;21.006;2023-05-10T04:51:43;10.97;47.96
68128;SHT30;54931;52.098;21.006;2023-05-10T04:54:11;11.06;47.60
68128;SHT30;54931;52.098;21.006;2023-05-10T04:56:38;11.15;46.96
68128;SHT30;54931;52.098;21.006;2023-05-10T04:59:07;11.25;46.99
68128;SHT30;54931;52.098;21.006;2023-05-10T05:01:35;11.47;47.21
68128;SHT30;54931;52.098;21.006;2023-05-10T05:04:02;11.79;46.79
68128;SHT30;54931;52.098;21.006;2023-05-10T05:06:31;12.07;46.18
68128;SHT30;54931;52.098;21.006;2023-05-10T05:08:58;12.25;45.25
68128;SHT30;54931;52.098;21.006;2023-05-10T05:11:26;12.43;44.86
68128;SHT30;54931;52.098;21.006;2023-05-10T05:13:54;12.61;45.02
68128;SHT30;54931;52.098;21.006;2023-05-10T05:16:21;12.80;43.50
68128;SHT30;54931;52.098;21.006;2023-05-10T05:18:49;12.87;43.21
68128;SHT30;54931;52.098;21.006;2023-05-10T05:21:17;12.93;42.79
68128;SHT30;54931;52.098;21.006;2023-05-10T05:23:47;13.10;43.27
68128;SHT30;54931;52.098;21.006;2023-05-10T05:26:15;13.36;42.68
68128;SHT30;54931;52.098;21.006;2023-05-10T05:28:42;13.64;42.71
68128;SHT30;54931;52.098;21.006;2023-05-10T05:31:10;13.79;41.60
68128;SHT30;54931;52.098;21.006;2023-05-10T05:33:38;13.93;41.47
68128;SHT30;54931;52.098;21.006;2023-05-10T05:36:06;14.19;41.16
68128;SHT30;54931;52.098;21.006;2023-05-10T05:38:34;14.23;40.49
68128;SHT30;54931;52.098;21.006;2023-05-10T05:41:02;14.15;40.16
68128;SHT30;54931;52.098;21.006;2023-05-10T05:43:30;14.21;40.29
68128;SHT30;54931;52.098;21.006;2023-05-10T05:45:58;14.42;40.54
68128;SHT30;54931;52.098;21.006;2023-05-10T05:48:25;14.64;40.32
68128;SHT30;54931;52.098;21.006;2023-05-10T05:50:56;14.85;39.94
68128;SHT30;54931;52.098;21.006;2023-05-10T05:53:24;15.01;39.54
68128;SHT30;54931;52.098;21.006;2023-05-10T05:55:56;15.19;39.42
68128;SHT30;54931;52.098;21.006;2023-05-10T05:58:25;15.33;38.76
68128;SHT30;54931;52.098;21.006;2023-05-10T06:00:53;15.34;38.40
68128;SHT30;54931;52.098;21.006;2023-05-10T06:03:21;15.53;39.03
68128;SHT30;54931;52.098;21.006;2023-05-10T06:05:48;15.72;37.96
68128;SHT30;54931;52.098;21.006;2023-05-10T06:08:16;15.72;37.56
68128;SHT30;54931;52.098;21.006;2023-05-10T06:10:44;15.67;37.58
68128;SHT30;54931;52.098;21.006;2023-05-10T06:13:12;15.84;38.02
68128;SHT30;54931;52.098;21.006;2023-05-10T06:15:40;15.92;37.23
68128;SHT30;54931;52.098;21.006;2023-05-10T06:18:08;15.98;37.77
68128;SHT30;54931;52.098;21.006;2023-05-10T06:20:35;16.15;37.49
68128;SHT30;54931;52.098;21.006;2023-05-10T06:23:03;16.28;37.59
68128;SHT30;54931;52.098;21.006;2023-05-10T06:25:31;16.61;37.26
68128;SHT30;54931;52.098;21.006;2023-05-10T06:27:59;16.73;36.60
68128;SHT30;54931;52.098;21.006;2023-05-10T06:30:26;17.10;37.25
68128;SHT30;54931;52.098;21.006;2023-05-10T06:32:55;17.24;35.46
68128;SHT30;54931;52.098;21.006;2023-05-10T06:35:23;17.35;36.03
68128;SHT30;54931;52.098;21.006;2023-05-10T06:37:51;17.59;35.78
68128;SHT30;54931;52.098;21.006;2023-05-10T06:40:19;17.73;34.69
68128;SHT30;54931;52.098;21.006;2023-05-10T06:42:47;17.74;34.74
68128;SHT30;54931;52.098;21.006;2023-05-10T06:45:15;17.68;33.98
68128;SHT30;54931;52.098;21.006;2023-05-10T06:47:43;17.46;34.48
68128;SHT30;54931;52.098;21.006;2023-05-10T06:50:11;17.57;34.33
68128;SHT30;54931;52.098;21.006;2023-05-10T06:52:39;17.60;33.81
68128;SHT30;54931;52.098;21.006;2023-05-10T06:55:07;17.65;33.51
68128;SHT30;54931;52.098;21.006;2023-05-10T06:57:35;17.68;32.68
68128;SHT30;54931;52.098;21.006;2023-05-10T07:00:03;17.57;33.15
68128;SHT30;54931;52.098;21.006;2023-05-10T07:02:34;17.48;33.04
68128;SHT30;54931;52.098;21.006;2023-05-10T07:05:01;17.51;33.19
68128;SHT30;54931;52.098;21.006;2023-05-10T07:07:30;17.69;32.64
68128;SHT30;54931;52.098;21.006;2023-05-10T07:09:58;17.77;32.33
68128;SHT30;54931;52.098;21.006;2023-05-10T07:12:25;17.75;31.44
68128;SHT30;54931;52.098;21.006;2023-05-10T07:14:54;17.67;31.52
68128;SHT30;54931;52.098;21.006;2023-05-10T07:17:22;17.84;32.11
68128;SHT30;54931;52.098;21.006;2023-05-10T07:19:50;18.00;31.75
68128;SHT30;54931;52.098;21.006;2023-05-10T07:22:17;18.06;30.25
68128;SHT30;54931;52.098;21.006;2023-05-10T07:24:45;18.07;30.63
68128;SHT30;54931;52.098;21.006;2023-05-10T07:27:13;18.13;30.21
68128;SHT30;54931;52.098;21.006;2023-05-10T07:29:41;18.05;29.74
68128;SHT30;54931;52.098;21.006;2023-05-10T07:32:09;18.02;29.90
68128;SHT30;54931;52.098;21.006;2023-05-10T07:34:37;18.19;30.33
68128;SHT30;54931;52.098;21.006;2023-05-10T07:37:05;18.18;28.40
68128;SHT30;54931;52.098;21.006;2023-05-10T07:39:33;18.12;29.15
68128;SHT30;54931;52.098;21.006;2023-05-10T07:42:01;18.20;28.17
68128;SHT30;54931;52.098;21.006;2023-05-10T07:44:29;18.16;27.92
68128;SHT30;54931;52.098;21.006;2023-05-10T07:46:57;18.18;26.93
68128;SHT30;54931;52.098;21.006;2023-05-10T07:49:25;18.11;27.40
68128;SHT30;54931;52.098;21.006;2023-05-10T07:51:53;18.17;27.33
68128;SHT30;54931;52.098;21.006;2023-05-10T07:54:20;18.19;27.16
68128;SHT30;54931;52.098;21.006;2023-05-10T07:56:48;18.07;26.76
68128;SHT30;54931;52.098;21.006;2023-05-10T07:59:17;18.08;27.46
68128;SHT30;54931;52.098;21.006;2023-05-10T08:01:45;18.28;27.20
68128;SHT30;54931;52.098;21.006;2023-05-10T08:04:13;18.31;26.25
68128;SHT30;54931;52.098;21.006;2023-05-10T08:06:40;18.34;26.96
68128;SHT30;54931;52.098;21.006;2023-05-10T08:09:08;18.49;27.39
68128;SHT30;54931;52.098;21.006;2023-05-10T08:11:36;18.54;26.31
68128;SHT30;54931;52.098;21.006;2023-05-10T08:14:03;18.59;26.53
68128;SHT30;54931;52.098;21.006;2023-05-10T08:16:31;18.69;25.86
68128;SHT30;54931;52.098;21.006;2023-05-10T08:18:59;18.72;26.57
68128;SHT30;54931;52.098;21.006;2023-05-10T08:21:27;18.89;26.82
68128;SHT30;54931;52.098;21.006;2023-05-10T08:23:55;18.83;26.33
68128;SHT30;54931;52.098;21.006;2023-05-10T08:26:23;18.72;26.12
68128;SHT30;54931;52.098;21.006;2023-05-10T08:28:51;18.61;26.16
68128;SHT30;54931;52.098;21.006;2023-05-10T08:31:18;18.63;25.82
68128;SHT30;54931;52.098;21.006;2023-05-10T08:33:46;18.63;25.92
68128;SHT30;54931;52.098;21.006;2023-05-10T08:36:14;18.43;25.95
68128;SHT30;54931;52.098;21.006;2023-05-10T08:38:56;18.45;26.76
68128;SHT30;54931;52.098;21.006;2023-05-10T08:41:24;18.79;26.95
68128;SHT30;54931;52.098;21.006;2023-05-10T08:43:54;19.05;25.69
68128;SHT30;54931;52.098;21.006;2023-05-10T08:46:22;19.08;25.64
68128;SHT30;54931;52.098;21.006;2023-05-10T08:48:50;19.26;25.65
68128;SHT30;54931;52.098;21.006;2023-05-10T08:51:22;19.23;25.55
68128;SHT30;54931;52.098;21.006;2023-05-10T08:53:54;19.30;25.26
68128;SHT30;54931;52.098;21.006;2023-05-10T08:56:23;19.40;26.30
68128;SHT30;54931;52.098;21.006;2023-05-10T08:58:51;19.67;25.91
68128;SHT30;54931;52.098;21.006;2023-05-10T09:01:19;19.61;25.07
68128;SHT30;54931;52.098;21.006;2023-05-10T09:03:48;19.58;25.69
68128;SHT30;54931;52.098;21.006;2023-05-10T09:06:17;19.68;25.70
68128;SHT30;54931;52.098;21.006;2023-05-10T09:08:45;19.91;25.32
68128;SHT30;54931;52.098;21.006;2023-05-10T09:11:14;20.03;25.19
68128;SHT30;54931;52.098;21.006;2023-05-10T09:13:43;20.22;24.89
68128;SHT30;54931;52.098;21.006;2023-05-10T09:16:14;20.34;25.56
68128;SHT30;54931;52.098;21.006;2023-05-10T09:18:41;20.41;25.71
68128;SHT30;54931;52.098;21.006;2023-05-10T09:21:09;20.56;25.59
68128;SHT30;54931;52.098;21.006;2023-05-10T09:23:38;20.30;24.95
68128;SHT30;54931;52.098;21.006;2023-05-10T09:26:10;20.14;25.29
68128;SHT30;54931;52.098;21.006;2023-05-10T09:28:57;20.00;25.14
68128;SHT30;54931;52.098;21.006;2023-05-10T09:34:20;20.01;25.59
68128;SHT30;54931;52.098;21.006;2023-05-10T09:37:00;20.03;25.18
68128;SHT30;54931;52.098;21.006;2023-05-10T09:39:32;19.99;24.64
68128;SHT30;54931;52.098;21.006;2023-05-10T09:42:08;19.90;24.49
68128;SHT30;54931;52.098;21.006;2023-05-10T09:44:37;19.91;24.73
68128;SHT30;54931;52.098;21.006;2023-05-10T09:47:05;20.01;24.42
68128;SHT30;54931;52.098;21.006;2023-05-10T09:49:33;20.04;24.48
68128;SHT30;54931;52.098;21.006;2023-05-10T09:54:32;20.17;24.95
68128;SHT30;54931;52.098;21.006;2023-05-10T09:57:01;20.20;24.76
68128;SHT30;54931;52.098;21.006;2023-05-10T09:59:29;20.25;25.18
68128;SHT30;54931;52.098;21.006;2023-05-10T10:01:58;20.27;24.61
68128;SHT30;54931;52.098;21.006;2023-05-10T10:04:27;20.19;24.82
68128;SHT30;54931;52.098;21.006;2023-05-10T10:07:01;20.21;25.11
68128;SHT30;54931;52.098;21.006;2023-05-10T10:09:31;20.30;24.67
68128;SHT30;54931;52.098;21.006;2023-05-10T10:12:01;20.23;24.91
68128;SHT30;54931;52.098;21.006;2023-05-10T10:14:36;20.30;25.11
68128;SHT30;54931;52.098;21.006;2023-05-10T10:17:05;20.39;24.78
68128;SHT30;54931;52.098;21.006;2023-05-10T10:19:35;20.32;24.36
68128;SHT30;54931;52.098;21.006;2023-05-10T10:22:03;20.22;24.21
68128;SHT30;54931;52.098;21.006;2023-05-10T10:24:32;20.04;24.31
68128;SHT30;54931;52.098;21.006;2023-05-10T10:27:09;19.88;24.41
68128;SHT30;54931;52.098;21.006;2023-05-10T10:36:07;20.52;24.79
68128;SHT30;54931;52.098;21.006;2023-05-10T10:41:31;20.53;25.20
68128;SHT30;54931;52.098;21.006;2023-05-10T10:52:26;19.98;25.74
68128;SHT30;54931;52.098;21.006;2023-05-10T10:55:00;19.96;25.83
68128;SHT30;54931;52.098;21.006;2023-05-10T11:05:43;20.04;25.74
68128;SHT30;54931;52.098;21.006;2023-05-10T11:08:14;20.03;26.07
68128;SHT30;54931;52.098;21.006;2023-05-10T11:11:01;20.24;25.94
68128;SHT30;54931;52.098;21.006;2023-05-10T11:18:54;20.74;26.26
68128;SHT30;54931;52.098;21.006;2023-05-10T11:21:31;20.76;25.08
68128;SHT30;54931;52.098;21.006;2023-05-10T11:24:01;20.47;24.96
68128;SHT30;54931;52.098;21.006;2023-05-10T11:26:35;20.28;25.86
68128;SHT30;54931;52.098;21.006;2023-05-10T11:29:04;20.14;26.09
68128;SHT30;54931;52.098;21.006;2023-05-10T11:31:32;20.19;26.09
68128;SHT30;54931;52.098;21.006;2023-05-10T11:34:00;20.18;26.77
68128;SHT30;54931;52.098;21.006;2023-05-10T11:36:35;20.24;26.49
68128;SHT30;54931;52.098;21.006;2023-05-10T11:39:04;20.21;25.92
68128;SHT30;54931;52.098;21.006;2023-05-10T11:41:33;20.16;25.79
68128;SHT30;54931;52.098;21.006;2023-05-10T11:44:01;20.19;26.43
68128;SHT30;54931;52.098;21.006;2023-05-10T11:46:29;20.18;25.73
68128;SHT30;54931;52.098;21.006;2023-05-10T11:48:58;20.16;25.70
68128;SHT30;54931;52.098;21.006;2023-05-10T11:51:28;20.10;26.28
68128;SHT30;54931;52.098;21.006;2023-05-10T11:54:00;20.20;26.39
68128;SHT30;54931;52.098;21.006;2023-05-10T11:56:27;20.28;25.99
68128;SHT30;54931;52.098;21.006;2023-05-10T11:58:56;20.09;25.24
68128;SHT30;54931;52.098;21.006;2023-05-10T12:01:26;19.94;25.67
68128;SHT30;54931;52.098;21.006;2023-05-10T12:03:55;20.07;26.49
68128;SHT30;54931;52.098;21.006;2023-05-10T12:06:28;20.18;26.57
68128;SHT30;54931;52.098;21.006;2023-05-10T12:09:01;20.07;26.21
68128;SHT30;54931;52.098;21.006;2023-05-10T12:11:38;19.94;26.68
68128;SHT30;54931;52.098;21.006;2023-05-10T12:14:08;19.98;26.24
68128;SHT30;54931;52.098;21.006;2023-05-10T12:16:36;19.90;26.20
68128;SHT30;54931;52.098;21.006;2023-05-10T12:19:04;19.91;27.26
68128;SHT30;54931;52.098;21.006;2023-05-10T12:21:32;20.03;26.66
68128;SHT30;54931;52.098;21.006;2023-05-10T12:24:03;19.95;26.42
68128;SHT30;54931;52.098;21.006;2023-05-10T12:26:34;19.91;27.17
68128;SHT30;54931;52.098;21.006;2023-05-10T12:29:24;20.00;26.58
68128;SHT30;54931;52.098;21.006;2023-05-10T12:31:55;20.13;26.27
68128;SHT30;54931;52.098;21.006;2023-05-10T12:34:34;20.04;26.10
68128;SHT30;54931;52.098;21.006;2023-05-10T12:37:04;19.97;26.69
68128;SHT30;54931;52.098;21.006;2023-05-10T12:39:38;19.95;26.56
68128;SHT30;54931;52.098;21.006;2023-05-10T12:42:07;19.90;26.82
68128;SHT30;54931;52.098;21.006;2023-05-10T12:44:36;19.82;26.51
68128;SHT30;54931;52.098;21.006;2023-05-10T12:47:04;19.69;26.86
68128;SHT30;54931;52.098;21.006;2023-05-10T12:49:32;19.78;26.85
68128;SHT30;54931;52.098;21.006;2023-05-10T12:52:01;19.87;27.17
68128;SHT30;54931;52.098;21.006;2023-05-10T12:54:29;19.93;26.48
68128;SHT30;54931;52.098;21.006;2023-05-10T12:56:57;19.84;26.56
68128;SHT30;54931;52.098;21.006;2023-05-10T12:59:24;19.82;26.89
68128;SHT30;54931;52.098;21.006;2023-05-10T13:01:52;19.74;26.57
68128;SHT30;54931;52.098;21.006;2023-05-10T13:04:20;19.71;26.88
68128;SHT30;54931;52.098;21.006;2023-05-10T13:06:48;19.70;26.64
68128;SHT30;54931;52.098;21.006;2023-05-10T13:09:15;19.72;27.20
68128;SHT30;54931;52.098;21.006;2023-05-10T13:11:43;19.74;27.18
68128;SHT30;54931;52.098;21.006;2023-05-10T13:14:12;19.82;27.54
68128;SHT30;54931;52.098;21.006;2023-05-10T13:16:40;19.90;26.90
68128;SHT30;54931;52.098;21.006;2023-05-10T13:19:08;20.02;27.16
68128;SHT30;54931;52.098;21.006;2023-05-10T13:21:36;19.96;26.60
68128;SHT30;54931;52.098;21.006;2023-05-10T13:24:03;19.87;26.41
68128;SHT30;54931;52.098;21.006;2023-05-10T13:26:32;19.84;26.41
68128;SHT30;54931;52.098;21.006;2023-05-10T13:29:01;19.90;26.56
68128;SHT30;54931;52.098;21.006;2023-05-10T13:31:30;20.06;26.55
68128;SHT30;54931;52.098;21.006;2023-05-10T13:33:58;20.16;26.03
68128;SHT30;54931;52.098;21.006;2023-05-10T13:36:25;20.23;26.27
68128;SHT30;54931;52.098;21.006;2023-05-10T13:38:53;20.14;26.33
68128;SHT30;54931;52.098;21.006;2023-05-10T13:41:21;20.12;26.78
68128;SHT30;54931;52.098;21.006;2023-05-10T13:43:49;20.13;26.47
68128;SHT30;54931;52.098;21.006;2023-05-10T13:46:17;19.96;26.49
68128;SHT30;54931;52.098;21.006;2023-05-10T13:48:44;19.96;26.98
68128;SHT30;54931;52.098;21.006;2023-05-10T13:51:13;19.99;27.15
68128;SHT30;54931;52.098;21.006;2023-05-10T13:53:40;20.10;27.19
68128;SHT30;54931;52.098;21.006;2023-05-10T13:56:08;20.19;26.77
68128;SHT30;54931;52.098;21.006;2023-05-10T13:58:36;20.18;26.49
68128;SHT30;54931;52.098;21.006;2023-05-10T14:01:04;20.03;26.37
68128;SHT30;54931;52.098;21.006;2023-05-10T14:03:32;20.02;26.79
68128;SHT30;54931;52.098;21.006;2023-05-10T14:06:00;20.13;27.04
68128;SHT30;54931;52.098;21.006;2023-05-10T14:08:27;20.16;26.45
68128;SHT30;54931;52.098;21.006;2023-05-10T14:10:55;20.11;26.77
68128;SHT30;54931;52.098;21.006;2023-05-10T14:13:23;20.12;26.78
68128;SHT30;54931;52.098;21.006;2023-05-10T14:15:52;20.08;26.75
68128;SHT30;54931;52.098;21.006;2023-05-10T14:18:21;19.99;26.93
68128;SHT30;54931;52.098;21.006;2023-05-10T14:20:48;19.94;26.80
68128;SHT30;54931;52.098;21.006;2023-05-10T14:23:16;19.75;27.08
68128;SHT30;54931;52.098;21.006;2023-05-10T14:25:44;19.81;27.45
68128;SHT30;54931;52.098;21.006;2023-05-10T14:28:12;19.96;27.43
68128;SHT30;54931;52.098;21.006;2023-05-10T14:30:39;19.91;26.66
68128;SHT30;54931;52.098;21.006;2023-05-10T14:33:07;19.89;27.14
68128;SHT30;54931;52.098;21.006;2023-05-10T14:35:35;20.03;27.02
68128;SHT30;54931;52.098;21.006;2023-05-10T14:38:04;20.26;26.82
68128;SHT30;54931;52.098;21.006;2023-05-10T14:40:32;20.49;26.82
68128;SHT30;54931;52.098;21.006;2023-05-10T14:43:00;20.68;26.42
68128;SHT30;54931;52.098;21.006;2023-05-10T14:45:28;20.80;26.31
68128;SHT30;54931;52.098;21.006;2023-05-10T14:47:57;20.94;25.76
68128;SHT30;54931;52.098;21.006;2023-05-10T14:50:25;21.02;25.93
68128;SHT30;54931;52.098;21.006;2023-05-10T14:52:53;20.90;25.89
68128;SHT30;54931;52.098;21.006;2023-05-10T14:55:21;20.85;26.00
68128;SHT30;54931;52.098;21.006;2023-05-10T14:57:49;20.98;25.89
68128;SHT30;54931;52.098;21.006;2023-05-10T15:00:17;21.08;25.80
68128;SHT30;54931;52.098;21.006;2023-05-10T15:02:48;21.28;26.35
68128;SHT30;54931;52.098;21.006;2023-05-10T15:05:16;21.63;25.08
68128;SHT30;54931;52.098;21.006;2023-05-10T15:07:44;21.63;25.10
68128;SHT30;54931;52.098;21.006;2023-05-10T15:10:12;21.64;24.98
68128;SHT30;54931;52.098;21.006;2023-05-10T15:12:41;21.48;25.10
68128;SHT30;54931;52.098;21.006;2023-05-10T15:15:08;21.31;25.58
68128;SHT30;54931;52.098;21.006;2023-05-10T15:17:37;21.28;25.25
68128;SHT30;54931;52.098;21.006;2023-05-10T15:20:04;21.26;25.25
68128;SHT30;54931;52.098;21.006;2023-05-10T15:22:33;21.14;24.97
68128;SHT30;54931;52.098;21.006;2023-05-10T15:25:01;21.10;25.33
68128;SHT30;54931;52.098;21.006;2023-05-10T15:27:29;21.37;24.76
68128;SHT30;54931;52.098;21.006;2023-05-10T15:29:56;21.59;24.75
68128;SHT30;54931;52.098;21.006;2023-05-10T15:32:26;21.71;23.87
68128;SHT30;54931;52.098;21.006;2023-05-10T15:34:56;21.60;23.93
68128;SHT30;54931;52.098;21.006;2023-05-10T15:37:24;21.60;24.09
68128;SHT30;54931;52.098;21.006;2023-05-10T15:39:52;21.59;23.72
68128;SHT30;54931;52.098;21.006;2023-05-10T15:42:20;21.62;23.70
68128;SHT30;54931;52.098;21.006;2023-05-10T15:44:48;21.70;23.68
68128;SHT30;54931;52.098;21.006;2023-05-10T15:47:17;21.71;23.36
68128;SHT30;54931;52.098;21.006;2023-05-10T15:49:45;21.79;23.29
68128;SHT30;54931;52.098;21.006;2023-05-10T15:52:13;21.75;23.10
68128;SHT30;54931;52.098;21.006;2023-05-10T15:54:41;21.68;23.30
68128;SHT30;54931;52.098;21.006;2023-05-10T15:57:09;21.57;23.14
68128;SHT30;54931;52.098;21.006;2023-05-10T15:59:37;21.39;23.59
68128;SHT30;54931;52.098;21.006;2023-05-10T16:02:06;21.44;23.51
68128;SHT30;54931;52.098;21.006;2023-05-10T16:04:35;21.40;23.25
68128;SHT30;54931;52.098;21.006;2023-05-10T16:07:04;21.31;23.19
68128;SHT30;54931;52.098;21.006;2023-05-10T16:09:31;21.37;23.39
68128;SHT30;54931;52.098;21.006;2023-05-10T16:11:59;21.44;22.97
68128;SHT30;54931;52.098;21.006;2023-05-10T16:14:28;21.39;22.50
68128;SHT30;54931;52.098;21.006;2023-05-10T16:16:56;21.31;22.77
68128;SHT30;54931;52.098;21.006;2023-05-10T16:19:24;21.29;22.57
68128;SHT30;54931;52.098;21.006;2023-05-10T16:21:53;21.25;22.76
68128;SHT30;54931;52.098;21.006;2023-05-10T16:24:21;21.29;22.83
68128;SHT30;54931;52.098;21.006;2023-05-10T16:26:49;21.47;23.12